createdAt,value
2022-08-05T00:02:25.125Z,31.02
2022-08-05T00:09:26.859Z,30.90
2022-08-05T00:16:36.497Z,30.76
2022-08-05T00:24:10.791Z,30.67
2022-08-05T00:31:12.855Z,30.47
2022-08-05T00:38:14.753Z,30.28
2022-08-05T00:45:16.429Z,30.24
2022-08-05T00:52:31.013Z,30.13
2022-08-05T00:59:34.741Z,30.06
2022-08-05T01:06:48.774Z,29.95
2022-08-05T01:14:00.031Z,29.76
2022-08-05T01:21:12.395Z,29.66
2022-08-05T01:28:26.483Z,29.47
2022-08-05T01:35:50.757Z,29.40
2022-08-05T01:42:51.152Z,29.25
2022-08-05T01:50:01.628Z,29.11
2022-08-05T01:58:10.636Z,29.01
2022-08-05T02:04:27.032Z,28.84
2022-08-05T02:11:47.751Z,28.73
2022-08-05T02:18:56.818Z,28.60
2022-08-05T02:25:59.797Z,28.38
2022-08-05T02:33:03.686Z,28.23
2022-08-05T02:40:05.824Z,28.05
2022-08-05T02:47:11.191Z,27.91
2022-08-05T02:54:35.602Z,27.81
2022-08-05T03:01:35.346Z,27.68
2022-08-05T03:08:38.126Z,27.57
2022-08-05T03:15:45.288Z,27.48
2022-08-05T03:22:50.058Z,27.30
2022-08-05T03:30:08.414Z,27.27
2022-08-05T03:37:10.643Z,27.20
2022-08-05T03:44:12.287Z,27.03
2022-08-05T03:52:38.086Z,26.99
2022-08-05T03:58:41.089Z,27.10
2022-08-05T04:05:42.901Z,27.13
2022-08-05T04:12:44.633Z,27.15
2022-08-05T04:19:47.063Z,27.16
2022-08-05T04:26:58.266Z,27.19
2022-08-05T04:34:31.870Z,27.08
2022-08-05T04:41:21.599Z,27.08
2022-08-05T04:48:38.277Z,27.20
2022-08-05T04:56:14.783Z,27.20
2022-08-05T05:03:05.714Z,27.29
2022-08-05T05:10:08.432Z,27.39
2022-08-05T05:17:10.065Z,27.44
2022-08-05T05:24:11.688Z,27.42
2022-08-05T05:31:13.900Z,27.46
2022-08-05T05:38:22.935Z,27.51
2022-08-05T05:45:29.336Z,27.53
2022-08-05T05:52:37.973Z,27.53
2022-08-05T05:59:42.134Z,27.58
2022-08-05T06:06:47.722Z,27.52
2022-08-05T06:13:54.122Z,27.54
2022-08-05T06:20:57.109Z,27.59
2022-08-05T06:28:11.342Z,27.48
2022-08-05T06:36:03.776Z,27.49
2022-08-05T06:42:42.014Z,27.50
2022-08-05T06:50:01.354Z,27.57
2022-08-05T06:57:47.196Z,27.92
2022-08-05T07:04:26.908Z,28.12
2022-08-05T07:11:28.816Z,28.25
2022-08-05T07:18:30.869Z,28.33
2022-08-05T07:25:55.464Z,28.38
2022-08-05T07:32:54.343Z,28.51
2022-08-05T07:40:04.567Z,28.62
2022-08-05T07:47:17.602Z,28.68
2022-08-05T07:54:21.954Z,28.44
2022-08-05T08:01:26.571Z,28.33
2022-08-05T08:08:31.571Z,28.36
2022-08-05T08:16:33.845Z,28.19
2022-08-05T08:22:55.977Z,28.23
2022-08-05T08:30:05.983Z,28.36
2022-08-05T08:37:19.299Z,28.63
2022-08-05T08:45:23.212Z,28.52
2022-08-05T08:52:03.969Z,28.32
2022-08-05T08:59:14.730Z,28.21
2022-08-05T09:06:24.187Z,28.10
2022-08-05T09:13:31.424Z,27.86
2022-08-05T09:20:36.729Z,27.89
2022-08-05T09:28:04.669Z,27.95
2022-08-05T09:35:09.230Z,28.13
2022-08-05T09:42:13.616Z,28.35
2022-08-05T09:49:54.678Z,28.51
2022-08-05T09:56:51.622Z,28.36
2022-08-05T10:03:58.641Z,28.26
2022-08-05T10:11:04.438Z,28.16
2022-08-05T10:18:16.644Z,28.00
2022-08-05T10:25:19.060Z,28.13
2022-08-05T10:32:54.990Z,28.32
2022-08-05T10:40:03.280Z,28.27
2022-08-05T10:47:26.025Z,28.18
2022-08-05T10:54:56.861Z,28.05
2022-08-05T11:02:14.554Z,27.96
2022-08-05T11:09:45.517Z,27.88
2022-08-05T11:17:59.587Z,27.91
2022-08-05T11:26:04.343Z,28.69
2022-08-05T11:32:51.658Z,30.16
2022-08-05T11:39:55.636Z,31.42
2022-08-05T11:47:10.945Z,31.84
2022-08-05T11:54:33.457Z,32.34
2022-08-05T12:01:36.085Z,32.96
2022-08-05T12:09:00.427Z,33.17
2022-08-05T12:16:02.204Z,33.15
2022-08-05T12:23:10.756Z,32.64
2022-08-05T12:30:15.464Z,33.21
2022-08-05T12:37:21.578Z,33.89
2022-08-05T12:44:33.305Z,34.61
2022-08-05T12:52:12.131Z,34.74
2022-08-05T12:59:20.759Z,35.59
2022-08-05T13:06:26.039Z,35.51
2022-08-05T13:14:04.753Z,34.75
2022-08-05T13:20:50.370Z,33.66
2022-08-05T13:27:53.540Z,33.02
2022-08-05T13:34:55.352Z,33.17
2022-08-05T13:41:56.949Z,33.53
2022-08-05T13:49:00.928Z,34.06
2022-08-05T13:56:03.366Z,34.04
2022-08-05T14:03:05.081Z,33.17
2022-08-05T14:10:18.774Z,32.67
2022-08-05T14:17:29.882Z,32.97
2022-08-05T14:24:31.602Z,32.74
2022-08-05T14:32:02.333Z,32.71
2022-08-05T14:38:56.822Z,32.54
2022-08-05T14:45:58.678Z,31.98
2022-08-05T14:53:00.791Z,31.90
2022-08-05T15:00:02.977Z,31.69
2022-08-05T15:07:04.607Z,31.53
2022-08-05T15:14:06.294Z,31.29
2022-08-05T15:21:08.651Z,30.92
2022-08-05T15:28:14.446Z,30.48
2022-08-05T15:35:16.499Z,30.23
2022-08-05T15:42:54.186Z,30.05
2022-08-05T15:49:48.018Z,29.81
2022-08-05T15:56:57.060Z,29.74
2022-08-05T16:03:58.673Z,29.56
2022-08-05T16:11:00.295Z,29.14
2022-08-05T16:18:04.132Z,28.86
2022-08-05T16:25:09.436Z,28.93
2022-08-05T16:32:11.681Z,29.03
2022-08-05T16:39:13.451Z,28.72
2022-08-05T16:46:24.185Z,28.66
2022-08-05T16:53:32.158Z,28.42
2022-08-05T17:00:37.714Z,28.18
2022-08-05T17:07:47.279Z,28.39
2022-08-05T17:14:56.400Z,28.17
2022-08-05T17:21:58.460Z,27.78
2022-08-05T17:29:00.162Z,27.35
2022-08-05T17:36:32.729Z,26.89
2022-08-05T17:43:53.181Z,26.53
2022-08-05T17:50:52.854Z,26.09
2022-08-05T17:57:55.739Z,25.74
2022-08-05T18:04:57.433Z,25.73
2022-08-05T18:12:00.471Z,25.52
2022-08-05T18:19:02.635Z,25.39
2022-08-05T18:26:04.795Z,25.15
2022-08-05T18:33:08.414Z,25.02
2022-08-05T18:40:34.094Z,24.96
2022-08-05T18:47:33.862Z,24.86
2022-08-05T18:54:35.573Z,24.66
2022-08-05T19:01:47.936Z,24.53
2022-08-05T19:08:58.311Z,24.49
2022-08-05T19:16:04.075Z,24.29
2022-08-05T19:23:07.896Z,24.06
2022-08-05T19:30:10.207Z,23.93
2022-08-05T19:37:11.826Z,23.89
2022-08-05T19:44:14.206Z,23.82
2022-08-05T19:51:56.602Z,23.73
2022-08-05T19:58:53.074Z,23.67
2022-08-05T20:05:56.744Z,23.53
2022-08-05T20:12:59.627Z,23.39
2022-08-05T20:20:02.038Z,23.32
2022-08-05T20:27:11.572Z,23.19
2022-08-05T20:34:13.367Z,23.23
2022-08-05T20:41:23.874Z,23.16
2022-08-05T20:48:28.823Z,23.07
2022-08-05T20:56:07.827Z,22.88
2022-08-05T21:02:56.052Z,22.93
2022-08-05T21:09:58.980Z,22.81
2022-08-05T21:17:00.709Z,22.57
2022-08-05T21:24:04.476Z,22.47
2022-08-05T21:31:06.487Z,22.44
2022-08-05T21:38:08.156Z,22.37
2022-08-05T21:45:10.853Z,22.36
2022-08-05T21:52:22.459Z,22.33
2022-08-05T21:59:48.140Z,22.23
2022-08-05T22:06:51.879Z,22.02
2022-08-05T22:14:19.802Z,21.98
2022-08-05T22:21:18.971Z,21.94
2022-08-05T22:28:21.460Z,21.90
2022-08-05T22:35:38.547Z,21.76
2022-08-05T22:42:57.757Z,21.64
2022-08-05T22:50:23.202Z,21.61
2022-08-05T22:57:22.226Z,21.34
2022-08-05T23:04:24.868Z,21.23
2022-08-05T23:11:26.919Z,21.11
2022-08-05T23:18:28.785Z,21.07
2022-08-05T23:25:52.295Z,20.96
2022-08-05T23:32:52.251Z,20.77
2022-08-05T23:39:54.967Z,20.68
2022-08-05T23:46:56.798Z,20.60
2022-08-05T23:54:01.128Z,20.51
